Time;durP1;ratioP1;P1;durP2;ratioP2;P2;SDS_P1;SDS_P2;PMS_P1;PMS_P2;Temp;Humidity;BMP_temperature;BMP_pressure;BME280_temperature;BME280_humidity;BME280_pressure;Samples;Min_cycle;Max_cycle;Signal;HPM_P1;HPM_P2
2022/12/06 00:01:45;;;;;;;21.95;11.38;;;;;;;5.75;53.40;101938.59;7393149;19;20018;-59
2022/12/06 00:04:14;;;;;;;21.20;11.32;;;;;;;5.81;53.38;101932.06;7394371;19;19999;-59
2022/12/06 00:06:50;;;;;;;22.08;10.38;;;;;;;5.89;53.45;101933.34;7392400;19;20002;-60
2022/12/06 00:09:30;;;;;;;21.77;10.60;;;;;;;5.91;53.56;101931.19;7396045;19;20022;-59
2022/12/06 00:11:56;;;;;;;22.15;10.60;;;;;;;5.96;53.38;101930.31;7393317;19;20028;-60
2022/12/06 00:14:23;;;;;;;21.15;10.68;;;;;;;5.97;53.36;101929.25;7396027;19;19999;-59
2022/12/06 00:16:50;;;;;;;22.52;10.43;;;;;;;5.93;53.58;101924.38;7393379;19;20006;-59
2022/12/06 00:19:18;;;;;;;18.77;9.60;;;;;;;5.86;53.76;101929.31;7395917;19;20007;-58
2022/12/06 00:21:46;;;;;;;18.48;9.95;;;;;;;5.86;53.94;101925.78;7391926;19;20335;-59
2022/12/06 00:24:14;;;;;;;21.00;9.88;;;;;;;5.95;53.73;101926.81;7396282;19;20342;-59
2022/12/06 00:26:43;;;;;;;21.27;9.55;;;;;;;5.94;53.78;101923.31;7393344;19;20498;-59
2022/12/06 00:29:14;;;;;;;17.17;8.80;;;;;;;6.01;53.46;101930.28;7395259;19;20013;-59
2022/12/06 00:31:40;;;;;;;18.90;8.98;;;;;;;5.96;53.94;101922.19;7392594;19;19995;-59
2022/12/06 00:34:06;;;;;;;18.42;8.45;;;;;;;5.97;53.80;101926.53;7394958;19;19991;-59
2022/12/06 00:36:36;;;;;;;17.08;8.00;;;;;;;6.06;53.66;101919.41;7394469;19;19998;-59
2022/12/06 00:39:06;;;;;;;15.32;7.47;;;;;;;6.09;53.62;101926.97;7392991;19;20017;-59
2022/12/06 00:41:33;;;;;;;15.90;7.65;;;;;;;6.07;53.69;101926.44;7393985;19;20005;-59
2022/12/06 00:43:58;;;;;;;13.70;6.53;;;;;;;6.10;53.86;101918.56;7394108;19;20345;-60
2022/12/06 00:46:27;;;;;;;13.90;6.53;;;;;;;6.10;53.68;101918.56;7394743;19;20002;-59
2022/12/06 00:48:54;;;;;;;11.82;6.20;;;;;;;6.14;53.88;101918.78;7394226;19;19994;-59
2022/12/06 00:51:22;;;;;;;11.55;5.90;;;;;;;6.12;53.75;101919.06;7393342;19;20010;-58
2022/12/06 00:53:48;;;;;;;12.02;5.38;;;;;;;6.12;53.61;101918.28;7393848;19;19999;-59
2022/12/06 00:56:15;;;;;;;11.57;5.32;;;;;;;6.11;53.79;101920.19;7393774;19;20517;-59
2022/12/06 00:58:40;;;;;;;12.23;5.28;;;;;;;6.23;53.69;101913.59;7393974;19;20003;-59
2022/12/06 01:01:12;;;;;;;11.20;4.97;;;;;;;6.23;53.47;101911.69;7390873;19;19998;-59
2022/12/06 01:03:39;;;;;;;11.40;5.22;;;;;;;6.25;53.65;101917.63;7394667;19;19999;-59
2022/12/06 01:06:08;;;;;;;12.02;5.18;;;;;;;6.26;53.43;101927.38;7391702;19;19999;-60
2022/12/06 01:08:34;;;;;;;11.30;5.00;;;;;;;6.24;53.39;101910.59;7393051;19;19991;-59
2022/12/06 01:11:01;;;;;;;11.65;5.15;;;;;;;6.20;53.52;101920.38;7392216;19;20006;-59
2022/12/06 01:13:27;;;;;;;10.95;5.00;;;;;;;6.21;53.62;101913.88;7392221;19;19994;-58
2022/12/06 01:15:53;;;;;;;11.38;5.65;;;;;;;6.21;53.74;101921.19;7392498;19;20014;-58
2022/12/06 01:18:20;;;;;;;11.20;5.00;;;;;;;6.28;53.60;101911.63;7389761;19;19998;-58
2022/12/06 01:20:46;;;;;;;12.25;5.40;;;;;;;6.30;53.39;101914.06;7392188;19;20003;-58
2022/12/06 01:23:13;;;;;;;10.95;5.13;;;;;;;6.28;53.49;101910.84;7393832;19;20016;-59
2022/12/06 01:25:48;;;;;;;11.90;5.43;;;;;;;6.26;53.50;101913.00;7392295;19;20006;-58
2022/12/06 01:28:14;;;;;;;12.52;5.82;;;;;;;6.31;53.43;101907.56;7393831;19;20005;-59
2022/12/06 01:30:40;;;;;;;13.20;5.85;;;;;;;6.26;53.74;101913.00;7390584;19;20445;-59
2022/12/06 01:33:05;;;;;;;11.88;5.85;;;;;;;6.30;53.45;101914.88;7393423;19;20003;-59
2022/12/06 01:35:31;;;;;;;12.60;5.85;;;;;;;6.25;53.64;101904.06;7392480;19;20701;-60
2022/12/06 01:37:57;;;;;;;12.95;5.88;;;;;;;6.27;53.75;101906.50;7392428;19;19998;-59
2022/12/06 01:40:22;;;;;;;13.68;6.10;;;;;;;6.34;53.40;101900.75;7392371;19;20003;-59
2022/12/06 01:42:48;;;;;;;12.77;5.93;;;;;;;6.32;53.42;101903.75;7390391;19;20450;-58
2022/12/06 01:45:14;;;;;;;12.80;5.78;;;;;;;6.36;53.41;101906.69;7392126;19;20394;-59
2022/12/06 01:47:42;;;;;;;11.48;5.70;;;;;;;6.32;53.28;101907.25;7392034;19;20006;-59
2022/12/06 01:50:28;;;;;;;12.48;5.45;;;;;;;6.31;53.36;101907.56;7392143;19;20514;-59
2022/12/06 01:53:05;;;;;;;11.63;5.65;;;;;;;6.31;53.74;101902.94;7392030;19;20005;-58
2022/12/06 01:55:35;;;;;;;12.55;6.20;;;;;;;6.41;53.52;101906.63;7390328;19;20002;-58
2022/12/06 01:58:08;;;;;;;11.32;5.60;;;;;;;6.40;53.25;101907.75;7390223;19;20025;-58
2022/12/06 02:00:34;;;;;;;13.98;6.22;;;;;;;6.31;53.40;101908.34;7391529;19;20002;-58
2022/12/06 02:03:01;;;;;;;12.38;6.13;;;;;;;6.34;53.50;101915.09;7392185;19;20006;-59
2022/12/06 02:05:28;;;;;;;12.93;6.07;;;;;;;6.36;53.41;101907.50;7391591;19;19998;-59
2022/12/06 02:07:55;;;;;;;12.95;6.47;;;;;;;6.31;53.59;101902.13;7391345;19;20003;-60
2022/12/06 02:10:27;;;;;;;14.48;6.35;;;;;;;6.34;53.57;101908.88;7391890;19;20646;-59
2022/12/06 02:12:57;;;;;;;14.75;6.63;;;;;;;6.21;53.75;101908.44;7392213;19;20432;-59
2022/12/06 02:15:38;;;;;;;16.25;7.28;;;;;;;6.24;53.67;101899.75;7390382;19;19995;-58
2022/12/06 02:18:20;;;;;;;14.88;7.38;;;;;;;6.32;53.65;101901.03;7390300;19;20011;-57
2022/12/06 02:21:07;;;;;;;15.50;6.78;;;;;;;6.29;53.73;101904.31;7391162;19;20014;-58
2022/12/06 02:23:41;;;;;;;14.75;7.28;;;;;;;6.26;53.80;101900.28;7390034;19;20016;-59
2022/12/06 02:26:15;;;;;;;14.90;6.93;;;;;;;6.36;53.51;101895.84;7390637;19;20077;-59
2022/12/06 02:29:05;;;;;;;12.63;5.78;;;;;;;6.36;53.66;101893.13;7391712;19;20002;-59
2022/12/06 02:31:48;;;;;;;13.85;6.65;;;;;;;6.31;53.56;101892.09;7389429;19;20113;-58
2022/12/06 02:34:26;;;;;;;12.95;5.82;;;;;;;6.27;53.73;101891.03;7391934;19;20022;-58
2022/12/06 02:37:10;;;;;;;12.18;5.53;;;;;;;6.24;53.68;101886.19;7390461;19;20007;-58
2022/12/06 02:39:51;;;;;;;13.27;5.15;;;;;;;6.31;53.56;101889.38;7389696;19;20453;-59
2022/12/06 02:42:26;;;;;;;10.82;5.18;;;;;;;6.30;53.71;101882.31;7391132;19;20002;-59
2022/12/06 02:45:00;;;;;;;9.85;4.60;;;;;;;6.28;53.78;101892.66;7390207;19;20117;-58
2022/12/06 02:47:37;;;;;;;10.30;4.50;;;;;;;6.29;53.68;101882.63;7387626;19;20019;-59
2022/12/06 02:50:09;;;;;;;12.07;5.05;;;;;;;6.37;53.50;101881.19;7390847;19;20033;-59
2022/12/06 02:52:39;;;;;;;13.93;5.70;;;;;;;6.35;53.36;101880.69;7390089;19;20023;-58
2022/12/06 02:55:07;;;;;;;12.25;5.15;;;;;;;6.34;53.58;101873.63;7390705;19;20078;-60
2022/12/06 02:57:40;;;;;;;12.32;5.00;;;;;;;6.31;53.59;101875.81;7390295;19;19998;-59
2022/12/06 03:00:28;;;;;;;15.03;5.67;;;;;;;6.32;53.65;101879.34;7390827;19;19999;-60
2022/12/06 03:03:05;;;;;;;12.10;5.63;;;;;;;6.33;53.43;101878.25;7387981;19;20243;-60
2022/12/06 03:06:00;;;;;;;13.65;5.65;;;;;;;6.10;54.08;101868.97;7389941;19;20024;-60
2022/12/06 03:08:40;;;;;;;11.35;5.60;;;;;;;6.28;53.75;101879.09;7389418;19;20006;-59
2022/12/06 03:11:06;;;;;;;14.35;5.88;;;;;;;6.29;53.61;101879.91;7388915;19;20002;-59
2022/12/06 03:13:38;;;;;;;12.45;5.93;;;;;;;6.16;53.83;101885.97;7388818;19;20002;-59
2022/12/06 03:16:13;;;;;;;11.02;5.90;;;;;;;6.22;53.92;101891.06;7387582;19;19999;-59
2022/12/06 03:19:02;;;;;;;12.15;5.80;;;;;;;6.27;53.50;101877.47;7389089;19;20470;-59
2022/12/06 03:21:37;;;;;;;13.00;5.85;;;;;;;6.26;53.51;101886.72;7389252;19;20033;-59
2022/12/06 03:24:09;;;;;;;13.20;6.05;;;;;;;6.25;53.79;101889.72;7389423;19;20327;-59
2022/12/06 03:26:37;;;;;;;13.05;5.97;;;;;;;6.35;53.26;101886.09;7389176;19;20070;-58
2022/12/06 03:29:05;;;;;;;13.82;5.63;;;;;;;6.30;53.53;101890.47;7390146;19;20110;-58
2022/12/06 03:31:34;;;;;;;13.25;6.15;;;;;;;6.27;53.53;101885.59;7388033;19;20001;-59
2022/12/06 03:34:16;;;;;;;12.55;6.53;;;;;;;6.20;53.76;101887.03;7389539;19;20010;-59
2022/12/06 03:36:45;;;;;;;14.77;6.63;;;;;;;6.30;53.64;101878.81;7390146;19;20017;-59
2022/12/06 03:39:15;;;;;;;14.43;5.85;;;;;;;6.21;53.69;101878.63;7387223;19;20017;-59
2022/12/06 03:41:50;;;;;;;12.68;5.85;;;;;;;6.32;53.49;101876.63;7388298;19;20010;-60
2022/12/06 03:44:16;;;;;;;11.65;5.65;;;;;;;6.32;53.35;101877.41;7396279;19;19994;-59
2022/12/06 03:46:48;;;;;;;12.40;5.93;;;;;;;6.33;53.09;101880.97;7395866;19;19994;-59
2022/12/06 03:49:19;;;;;;;14.18;6.60;;;;;;;6.39;53.06;101879.00;7395755;19;20359;-59
2022/12/06 03:51:45;;;;;;;14.27;6.35;;;;;;;6.40;52.98;101884.13;7394124;19;20002;-58
2022/12/06 03:54:11;;;;;;;13.38;5.88;;;;;;;6.39;53.12;101881.72;7396882;19;20458;-58
2022/12/06 03:56:38;;;;;;;12.75;6.03;;;;;;;6.42;53.17;101881.13;7393941;19;20480;-59
2022/12/06 03:59:05;;;;;;;12.27;6.22;;;;;;;6.34;53.31;101882.56;7396891;19;20009;-58
2022/12/06 04:01:31;;;;;;;11.02;5.63;;;;;;;6.36;53.14;101876.84;7394135;19;20003;-59
2022/12/06 04:03:57;;;;;;;13.00;5.72;;;;;;;6.41;53.14;101876.81;7396038;19;20637;-59
2022/12/06 04:06:29;;;;;;;11.90;5.72;;;;;;;6.30;53.34;101874.19;7394844;19;20002;-59
2022/12/06 04:11:44;;;;;;;12.63;6.20;;;;;;;6.23;53.26;101870.22;7391054;19;20026;-60
2022/12/06 04:14:10;;;;;;;11.63;5.95;;;;;;;6.33;53.10;101872.81;7394213;19;20062;-60
2022/12/06 04:19:26;;;;;;;11.35;5.50;;;;;;;6.08;53.34;101869.25;7395683;19;20017;-60
2022/12/06 04:24:36;;;;;;;;;;;;;;;6.31;52.94;101861.47;7396027;19;20020;-60
2022/12/06 04:40:45;;;;;;;11.23;5.70;;;;;;;6.26;52.60;101850.63;7393923;19;20025;-60
2022/12/06 04:45:55;;;;;;;12.60;6.35;;;;;;;6.23;52.85;101848.53;7394226;19;20009;-59
2022/12/06 04:48:21;;;;;;;12.02;5.90;;;;;;;6.29;52.79;101856.31;7392094;19;19994;-59
2022/12/06 04:50:48;;;;;;;11.25;5.78;;;;;;;6.29;52.58;101856.31;7392846;19;20007;-59
2022/12/06 04:53:14;;;;;;;13.23;6.07;;;;;;;6.32;52.64;101852.22;7392379;19;20002;-60
2022/12/06 04:55:45;;;;;;;12.25;5.95;;;;;;;6.27;52.52;101853.06;7391480;19;19995;-60
2022/12/06 04:58:11;;;;;;;13.55;6.00;;;;;;;6.19;52.76;101850.19;7394731;19;19998;-60
2022/12/06 05:00:36;;;;;;;12.43;6.10;;;;;;;6.26;52.67;101851.47;7392752;19;20016;-60
2022/12/06 05:03:02;;;;;;;13.88;6.47;;;;;;;6.23;52.76;101852.03;7394637;19;19995;-60
2022/12/06 05:05:28;;;;;;;14.15;6.82;;;;;;;6.21;52.57;101848.81;7393142;19;20078;-60
2022/12/06 05:07:54;;;;;;;14.30;6.63;;;;;;;6.23;52.67;101845.81;7394134;19;20020;-60
2022/12/06 05:10:19;;;;;;;12.00;6.10;;;;;;;6.31;52.49;101848.72;7392667;19;20003;-59
2022/12/06 05:12:45;;;;;;;12.93;6.75;;;;;;;6.28;52.27;101846.56;7394016;19;20344;-60
2022/12/06 05:15:11;;;;;;;13.27;6.30;;;;;;;6.22;52.61;101841.47;7386822;19;20501;-58
2022/12/06 05:17:36;;;;;;;14.50;7.00;;;;;;;6.25;52.37;101839.00;7394261;19;20508;-57
2022/12/06 05:20:03;;;;;;;13.13;6.30;;;;;;;6.28;52.27;101838.44;7392968;19;20009;-59
2022/12/06 05:22:32;;;;;;;12.23;6.38;;;;;;;6.24;52.65;101831.97;7393883;19;20026;-60
2022/12/06 05:24:57;;;;;;;13.23;6.40;;;;;;;6.31;52.35;101840.56;7392388;19;20023;-60
2022/12/06 05:27:23;;;;;;;12.60;6.50;;;;;;;6.33;52.22;101843.00;7393089;19;20470;-61
2022/12/06 05:29:49;;;;;;;14.38;6.95;;;;;;;6.08;52.65;101844.06;7393283;19;20462;-59
2022/12/06 05:32:14;;;;;;;13.35;6.57;;;;;;;6.11;52.91;101843.47;7391261;19;19999;-59
2022/12/06 05:34:40;;;;;;;13.25;6.82;;;;;;;6.22;52.55;101844.97;7392494;19;20558;-59
2022/12/06 05:37:06;;;;;;;16.05;7.40;;;;;;;6.25;52.27;101839.00;7392767;19;20066;-59
2022/12/06 05:39:31;;;;;;;14.30;6.72;;;;;;;6.19;52.32;101840.13;7392770;19;20002;-59
2022/12/06 05:41:57;;;;;;;14.63;7.32;;;;;;;6.21;52.59;101839.84;7392447;19;20003;-59
2022/12/06 05:44:23;;;;;;;13.30;6.78;;;;;;;6.19;52.73;101837.41;7393065;19;20066;-59
2022/12/06 05:46:49;;;;;;;14.85;7.40;;;;;;;6.13;52.85;101831.25;7390540;19;20831;-60
2022/12/06 05:49:14;;;;;;;12.95;6.85;;;;;;;6.14;52.83;101837.47;7392798;19;20007;-59
2022/12/06 05:51:41;;;;;;;13.32;7.47;;;;;;;6.11;52.88;101822.59;7391006;19;20006;-60
2022/12/06 05:54:06;;;;;;;14.90;7.13;;;;;;;6.23;52.84;101830.34;7392877;19;20022;-59
2022/12/06 05:56:32;;;;;;;17.15;7.13;;;;;;;6.23;52.63;101838.47;7390130;19;20002;-61
2022/12/06 05:58:58;;;;;;;14.30;7.10;;;;;;;6.22;52.71;101842.28;7392824;19;20030;-62
2022/12/06 06:01:24;;;;;;;14.45;7.28;;;;;;;6.22;52.89;101842.28;7392079;19;19994;-60
2022/12/06 06:03:49;;;;;;;13.80;7.00;;;;;;;6.20;52.88;101840.97;7392415;19;19999;-60
2022/12/06 06:06:16;;;;;;;14.80;7.43;;;;;;;6.20;52.93;101847.19;7389308;19;20001;-60
2022/12/06 06:08:41;;;;;;;13.32;6.50;;;;;;;6.19;52.78;101845.56;7391793;19;20336;-60
2022/12/06 06:11:07;;;;;;;13.38;6.85;;;;;;;6.23;52.69;101840.41;7390988;19;19999;-60
2022/12/06 06:13:33;;;;;;;14.07;7.40;;;;;;;6.28;52.75;101845.75;7392143;19;20010;-60
2022/12/06 06:15:59;;;;;;;13.98;6.80;;;;;;;6.31;52.55;101843.28;7389614;19;20007;-60
2022/12/06 06:18:25;;;;;;;12.98;6.68;;;;;;;6.30;52.66;101843.56;7389990;19;20009;-60
2022/12/06 06:20:53;;;;;;;13.05;6.88;;;;;;;6.24;52.79;101848.25;7392646;19;19995;-59
2022/12/06 06:23:20;;;;;;;14.32;7.50;;;;;;;6.16;52.98;101845.31;7390022;19;20009;-60
2022/12/06 06:25:46;;;;;;;13.57;6.65;;;;;;;6.15;52.76;101844.53;7389520;19;20494;-60
2022/12/06 06:28:13;;;;;;;14.55;7.57;;;;;;;6.11;52.94;101838.88;7390463;19;19997;-60
2022/12/06 06:30:38;;;;;;;12.48;6.60;;;;;;;6.10;52.91;101842.66;7390837;19;20012;-61
2022/12/06 06:33:04;;;;;;;15.20;7.60;;;;;;;6.18;52.74;101843.16;7390869;19;19999;-61
2022/12/06 06:35:30;;;;;;;14.50;7.05;;;;;;;6.17;52.93;101844.22;7389930;19;20324;-60
2022/12/06 06:37:55;;;;;;;14.55;6.60;;;;;;;6.16;52.94;101842.59;7390673;19;19999;-60
2022/12/06 06:40:21;;;;;;;12.73;7.22;;;;;;;6.17;52.96;101836.91;7390667;19;19995;-58
2022/12/06 06:42:47;;;;;;;16.23;9.00;;;;;;;6.17;53.09;101842.31;7390769;19;20325;-59
2022/12/06 06:45:13;;;;;;;15.52;8.27;;;;;;;6.23;52.86;101849.31;7387589;19;20006;-59
2022/12/06 06:47:38;;;;;;;16.25;8.35;;;;;;;6.16;52.75;101851.56;7391077;19;20479;-60
2022/12/06 06:50:05;;;;;;;15.15;7.78;;;;;;;6.12;52.89;101850.50;7390558;19;20002;-61
2022/12/06 06:52:31;;;;;;;16.27;8.43;;;;;;;6.14;52.92;101853.72;7390586;19;19998;-61
2022/12/06 06:54:58;;;;;;;16.02;8.25;;;;;;;6.13;52.79;101852.13;7389738;19;20369;-61
2022/12/06 06:57:24;;;;;;;16.00;7.80;;;;;;;6.20;52.58;101846.38;7390660;19;19999;-61
2022/12/06 06:59:49;;;;;;;16.20;8.27;;;;;;;6.15;52.69;101854.56;7390427;19;20367;-60
2022/12/06 07:02:16;;;;;;;14.93;7.93;;;;;;;6.20;52.55;101855.31;7390040;19;20003;-61
2022/12/06 07:04:43;;;;;;;14.65;7.88;;;;;;;6.23;52.51;101852.03;7389781;19;20332;-61
2022/12/06 07:07:10;;;;;;;15.52;7.75;;;;;;;6.30;52.41;101863.34;7389276;19;20550;-61
2022/12/06 07:09:36;;;;;;;14.55;7.63;;;;;;;6.32;52.22;101858.44;7391021;19;19995;-61
2022/12/06 07:12:03;;;;;;;16.40;7.78;;;;;;;6.28;52.16;101867.44;7387994;19;20026;-61
2022/12/06 07:14:29;;;;;;;15.50;8.40;;;;;;;6.18;52.42;101864.84;7390047;19;19998;-62
2022/12/06 07:16:54;;;;;;;15.93;8.38;;;;;;;6.11;52.64;101865.16;7388256;19;20066;-62
2022/12/06 07:19:20;;;;;;;16.10;8.55;;;;;;;6.24;52.22;101856.38;7397877;19;20010;-62
2022/12/06 07:21:46;;;;;;;16.02;8.43;;;;;;;6.23;52.12;101862.09;7397781;19;20105;-62
2022/12/06 07:24:12;;;;;;;17.77;8.57;;;;;;;6.06;52.45;101862.47;7397486;19;20070;-60
2022/12/06 07:26:44;;;;;;;18.33;9.20;;;;;;;6.08;52.45;101860.31;7394145;19;20006;-59
2022/12/06 07:29:09;;;;;;;16.88;8.70;;;;;;;6.09;52.46;101867.34;7397348;19;20022;-59
2022/12/06 07:31:35;;;;;;;16.80;9.32;;;;;;;6.07;52.40;101861.41;7395427;19;20572;-59
2022/12/06 07:34:01;;;;;;;18.63;9.88;;;;;;;6.04;52.38;101865.50;7397192;19;20463;-60
2022/12/06 07:36:31;;;;;;;16.90;8.68;;;;;;;6.08;52.27;101871.97;7394386;19;20003;-59
2022/12/06 07:38:58;;;;;;;17.48;8.77;;;;;;;6.07;52.10;101867.63;7397453;19;19999;-62
2022/12/06 07:46:58;;;;;;;16.10;8.27;;;;;;;6.11;52.21;101870.59;7396488;19;20036;-61
2022/12/06 07:49:24;;;;;;;16.17;8.68;;;;;;;6.15;52.14;101868.91;7396866;19;20041;-60
2022/12/06 07:51:52;;;;;;;18.80;8.38;;;;;;;6.24;52.13;101869.94;7394812;19;20466;-61
2022/12/06 07:54:17;;;;;;;16.52;8.82;;;;;;;6.21;51.87;101870.50;7395824;19;20335;-61
2022/12/06 07:56:43;;;;;;;16.20;9.10;;;;;;;6.27;51.79;101869.34;7392906;19;20029;-60
2022/12/06 07:59:09;;;;;;;19.55;9.40;;;;;;;6.22;51.96;101866.69;7396351;19;20474;-59
2022/12/06 08:01:35;;;;;;;21.75;9.90;;;;;;;6.27;51.85;101880.19;7396098;19;20335;-59
2022/12/06 08:04:03;;;;;;;17.92;9.50;;;;;;;6.17;52.08;101874.06;7395527;19;20077;-59
2022/12/06 08:06:30;;;;;;;20.45;9.15;;;;;;;6.16;51.97;101877.84;7391608;19;20542;-61
2022/12/06 08:08:56;;;;;;;19.65;10.15;;;;;;;6.20;51.91;101885.13;7395762;19;20002;-58
2022/12/06 08:11:23;;;;;;;17.02;9.30;;;;;;;6.23;51.78;101883.78;7394450;19;20006;-58
2022/12/06 08:13:49;;;;;;;19.38;9.55;;;;;;;6.20;51.94;101885.13;7394153;19;20091;-58
2022/12/06 08:16:16;;;;;;;16.77;9.23;;;;;;;6.22;51.75;101885.66;7392837;19;20010;-58
2022/12/06 08:18:42;;;;;;;16.80;9.07;;;;;;;6.21;51.85;101886.75;7395514;19;20325;-58
2022/12/06 08:21:12;;;;;;;18.88;8.82;;;;;;;6.22;51.88;101887.56;7395639;19;19998;-58
2022/12/06 08:23:37;;;;;;;16.77;8.73;;;;;;;6.15;51.99;101887.09;7393539;19;20054;-58
2022/12/06 08:26:07;;;;;;;15.68;8.43;;;;;;;6.14;51.88;101891.69;7393114;19;20011;-58
2022/12/06 08:28:34;;;;;;;15.57;8.70;;;;;;;6.29;51.59;101888.88;7395052;19;20058;-58
2022/12/06 08:31:06;;;;;;;17.73;9.32;;;;;;;6.22;51.82;101890.28;7393899;19;19995;-58
2022/12/06 08:33:32;;;;;;;17.52;8.77;;;;;;;6.17;51.94;101883.00;7394995;19;20002;-58
2022/12/06 08:35:57;;;;;;;16.13;8.65;;;;;;;6.18;51.87;101892.75;7390393;19;20009;-58
2022/12/06 08:38:23;;;;;;;17.08;8.75;;;;;;;6.15;51.82;101890.59;7394951;19;20360;-58
2022/12/06 08:40:49;;;;;;;18.80;9.27;;;;;;;6.19;51.75;101891.63;7393623;19;20063;-58
2022/12/06 08:43:15;;;;;;;17.88;9.13;;;;;;;6.16;51.73;101892.22;7394759;19;20427;-58
2022/12/06 08:45:40;;;;;;;16.65;9.10;;;;;;;6.22;51.59;101887.56;7391962;19;19999;-58
2022/12/06 08:48:06;;;;;;;18.40;8.15;;;;;;;6.22;51.70;101885.66;7393052;19;20003;-57
2022/12/06 08:50:32;;;;;;;18.60;8.90;;;;;;;6.17;51.76;101891.13;7393586;19;19999;-57
2022/12/06 08:52:58;;;;;;;15.52;8.88;;;;;;;6.17;51.85;101888.41;7394143;19;20014;-57
2022/12/06 08:55:23;;;;;;;19.45;9.20;;;;;;;6.24;51.51;101885.38;7391812;19;20470;-59
2022/12/06 08:57:49;;;;;;;15.80;8.68;;;;;;;6.30;51.24;101890.47;7393761;19;20007;-58
2022/12/06 09:00:15;;;;;;;16.52;7.93;;;;;;;6.25;51.40;101887.00;7394710;19;19995;-58
2022/12/06 09:02:41;;;;;;;17.60;8.57;;;;;;;6.27;51.37;101885.59;7393291;19;20010;-58
2022/12/06 09:05:07;;;;;;;17.58;8.32;;;;;;;6.27;51.52;101901.88;7392593;19;19994;-58
2022/12/06 09:07:33;;;;;;;16.00;8.30;;;;;;;6.24;51.38;101891.63;7393379;19;20058;-58
2022/12/06 09:09:59;;;;;;;15.40;8.13;;;;;;;6.26;51.20;101888.59;7393833;19;20037;-58
2022/12/06 09:12:25;;;;;;;16.92;8.05;;;;;;;6.37;50.95;101894.75;7392694;19;20003;-58
2022/12/06 09:14:50;;;;;;;14.95;8.02;;;;;;;6.35;50.83;101881.47;7392771;19;20488;-58
2022/12/06 09:17:16;;;;;;;15.82;7.55;;;;;;;6.33;50.92;101889.09;7390667;19;20478;-58
2022/12/06 09:19:42;;;;;;;14.77;7.97;;;;;;;6.40;50.91;101883.34;7393921;19;20007;-56
2022/12/06 09:22:08;;;;;;;14.75;7.47;;;;;;;6.34;51.05;101882.56;7392785;19;20009;-57
2022/12/06 09:24:34;;;;;;;15.32;7.00;;;;;;;6.41;50.84;101879.50;7393678;19;20463;-57
2022/12/06 09:27:00;;;;;;;14.15;6.68;;;;;;;6.40;50.64;101883.34;7392660;19;20069;-57
2022/12/06 09:29:26;;;;;;;14.20;6.47;;;;;;;6.28;50.77;101892.66;7392440;19;20450;-58
2022/12/06 09:31:52;;;;;;;16.48;7.28;;;;;;;6.34;50.82;101889.91;7392014;19;20406;-58
2022/12/06 09:34:18;;;;;;;13.18;6.30;;;;;;;6.44;50.71;101890.63;7392884;19;20006;-58
2022/12/06 09:36:56;;;;;;;14.77;7.78;;;;;;;6.40;50.49;101894.19;7389719;19;20407;-58
2022/12/06 09:39:37;;;;;;;15.30;7.20;;;;;;;6.43;50.47;101883.56;7391348;19;20010;-57
2022/12/06 09:42:02;;;;;;;14.38;6.88;;;;;;;6.46;50.43;101885.72;7392850;19;20553;-57
2022/12/06 09:45:07;;;;;;;14.43;6.88;;;;;;;6.50;50.12;101888.66;7392461;19;19998;-57
2022/12/06 09:48:05;;;;;;;13.95;6.50;;;;;;;6.52;50.19;101886.47;7393570;19;19994;-57
2022/12/06 09:50:55;;;;;;;14.15;6.95;;;;;;;6.55;50.03;101891.31;7390182;19;19995;-57
2022/12/06 09:53:30;;;;;;;14.38;6.07;;;;;;;6.40;50.06;101888.75;7393003;19;20003;-58
2022/12/06 09:56:04;;;;;;;11.90;6.18;;;;;;;6.53;49.73;101893.50;7390044;19;20088;-57
2022/12/06 09:59:14;;;;;;;14.20;6.47;;;;;;;6.48;49.25;101890.84;7391123;19;19999;-57
2022/12/06 10:01:42;;;;;;;13.70;6.60;;;;;;;6.52;49.83;101885.66;7392761;19;20007;-57
2022/12/06 10:04:14;;;;;;;12.40;6.10;;;;;;;6.59;49.65;101878.78;7392181;19;20006;-58
2022/12/06 10:06:49;;;;;;;11.02;5.57;;;;;;;6.48;49.84;101888.16;7390154;19;20002;-58
2022/12/06 10:09:30;;;;;;;12.98;5.97;;;;;;;6.41;50.08;101891.19;7392406;19;20027;-57
2022/12/06 10:12:05;;;;;;;11.75;5.45;;;;;;;6.46;49.92;101887.59;7390330;19;20070;-57
2022/12/06 10:14:41;;;;;;;12.27;5.68;;;;;;;6.61;49.56;101887.47;7390161;19;19995;-56
2022/12/06 10:17:21;;;;;;;11.75;5.53;;;;;;;6.55;49.84;101888.59;7389622;19;20048;-58
2022/12/06 10:20:13;;;;;;;12.77;5.85;;;;;;;6.55;49.42;101883.19;7392789;19;20005;-58
2022/12/06 10:23:07;;;;;;;12.40;4.95;;;;;;;6.46;49.31;101874.88;7391646;19;20058;-59
2022/12/06 10:25:41;;;;;;;10.18;4.78;;;;;;;6.42;49.65;101875.72;7390788;19;20005;-56
2022/12/06 10:28:27;;;;;;;11.90;5.50;;;;;;;6.53;49.09;101869.09;7389406;19;20002;-59
2022/12/06 10:30:58;;;;;;;10.80;5.03;;;;;;;6.63;49.31;101869.00;7390058;19;20330;-58
2022/12/06 10:33:42;;;;;;;13.68;6.10;;;;;;;6.67;49.23;101863.78;7391072;19;20331;-58
2022/12/06 10:36:12;;;;;;;11.90;5.38;;;;;;;6.70;49.50;101865.94;7389532;19;19999;-58
2022/12/06 10:38:44;;;;;;;10.57;5.03;;;;;;;6.65;49.55;101871.41;7391065;19;20013;-58
2022/12/06 10:41:32;;;;;;;12.43;5.10;;;;;;;6.71;49.47;101867.56;7396233;19;19995;-58
2022/12/06 10:44:05;;;;;;;10.88;5.03;;;;;;;6.67;49.57;101870.00;7390144;19;20062;-56
2022/12/06 10:47:05;;;;;;;11.45;5.22;;;;;;;6.67;49.21;101864.59;7390220;19;20026;-57
2022/12/06 10:49:30;;;;;;;11.73;5.45;;;;;;;6.68;49.36;101863.50;7390807;19;20009;-57
2022/12/06 10:52:03;;;;;;;9.90;5.00;;;;;;;6.72;49.26;101863.72;7394502;19;19995;-58
2022/12/06 10:54:37;;;;;;;10.93;5.20;;;;;;;6.63;49.44;101860.84;7398272;19;20006;-57
2022/12/06 10:57:12;;;;;;;10.50;4.70;;;;;;;6.55;49.55;101858.75;7398012;19;20066;-57
2022/12/06 10:59:47;;;;;;;9.43;4.75;;;;;;;6.58;49.36;101860.91;7396191;19;20526;-57
2022/12/06 11:02:33;;;;;;;11.07;4.90;;;;;;;6.61;49.22;101857.63;7398388;19;20021;-58
2022/12/06 11:05:03;;;;;;;9.68;4.53;;;;;;;6.64;49.12;101851.63;7397102;19;20021;-58
2022/12/06 11:07:36;;;;;;;11.85;5.25;;;;;;;6.56;49.36;101854.13;7398153;19;20013;-57
2022/12/06 11:10:13;;;;;;;11.20;4.97;;;;;;;6.57;49.41;101851.13;7397367;19;20474;-57
2022/12/06 11:12:40;;;;;;;10.35;4.88;;;;;;;6.58;49.53;101850.06;7398130;19;20009;-58
2022/12/06 11:15:26;;;;;;;11.25;5.28;;;;;;;6.55;49.40;101847.91;7394212;19;20454;-58
2022/12/06 11:18:02;;;;;;;12.75;5.35;;;;;;;6.57;49.54;101843.00;7397932;19;20420;-58
2022/12/06 11:20:42;;;;;;;12.05;4.85;;;;;;;6.65;49.12;101845.09;7397399;19;20006;-57
2022/12/06 11:23:21;;;;;;;10.85;4.93;;;;;;;6.56;49.40;101846.00;7397626;19;20026;-58
2022/12/06 11:26:10;;;;;;;9.35;4.57;;;;;;;6.61;49.12;101846.78;7392918;19;20475;-58
2022/12/06 11:28:42;;;;;;;10.82;4.55;;;;;;;6.54;49.33;101845.47;7396556;19;20014;-57
2022/12/06 11:31:22;;;;;;;10.55;5.40;;;;;;;6.64;49.00;101843.47;7395651;19;20066;-58
2022/12/06 11:33:47;;;;;;;11.45;4.57;;;;;;;6.82;48.68;101851.94;7396993;19;20365;-57
2022/12/06 11:36:14;;;;;;;11.93;5.00;;;;;;;6.86;48.71;101842.13;7393834;19;20003;-58
2022/12/06 11:38:43;;;;;;;11.02;5.00;;;;;;;6.83;48.47;101842.72;7395926;19;20128;-58
2022/12/06 11:41:13;;;;;;;12.00;5.05;;;;;;;6.83;48.69;101837.28;7394659;19;20007;-58
2022/12/06 11:43:39;;;;;;;15.13;5.15;;;;;;;6.75;48.88;101840.66;7396967;19;20023;-58
2022/12/06 11:46:07;;;;;;;17.70;5.57;;;;;;;6.72;49.00;101833.88;7392514;19;20463;-58
2022/12/06 11:48:34;;;;;;;12.45;5.63;;;;;;;6.75;49.08;101829.78;7395135;19;20002;-58
2022/12/06 11:51:00;;;;;;;14.98;6.53;;;;;;;6.67;49.41;101834.75;7396065;19;20002;-58
2022/12/06 11:53:34;;;;;;;13.70;5.60;;;;;;;6.72;49.22;101830.38;7396332;19;20330;-59
2022/12/06 11:56:08;;;;;;;12.15;5.10;;;;;;;6.78;48.93;101824.59;7394224;19;20007;-59
2022/12/06 11:58:43;;;;;;;15.02;4.82;;;;;;;6.74;48.79;101833.59;7394251;19;20014;-59
2022/12/06 12:01:13;;;;;;;13.90;5.82;;;;;;;6.73;49.37;101823.81;7394410;19;20347;-59
2022/12/06 12:03:41;;;;;;;11.50;4.32;;;;;;;6.75;49.01;101825.16;7395353;19;20006;-58
2022/12/06 12:06:18;;;;;;;11.07;4.63;;;;;;;6.76;49.00;101820.53;7394166;19;20006;-58
2022/12/06 12:08:57;;;;;;;10.98;4.50;;;;;;;6.81;48.92;101815.03;7395541;19;20003;-58